首页
METAR-TAF:

METAR-TAF

机场 :

柏林-泰格尔奥托·利林塔尔机场

柏林, 德国

纬度: 52-34N, 经度: 013-19E, 海拔: 37米

当前天气观测

该预报发布于41分钟前的09:50 UTC
风速13节,风向,在东转东北东转东南之间变化
温度 7°C
湿度 87%
气压 1005 hPa
能见度10公里或以上
多云层高于1300英尺

METAR: EDDT 150950Z 09013KT 060V120 9999 BKN013 07/05 Q1005 BECMG BKN015

时间: 11:31 (10:31 UTC)

预报

该预报发布于5小时和31分钟前的05:00 UTC
预报有效从15日的 06点(UTC)到 16日的 06点(UTC)
风速13节,风向
能見度: 9000
多云层高于1000英尺
短暂存在
从 15日的 06点(UTC)到 15日的 12点(UTC)
多云层高于600英尺
几率 30% :
短暂存在
从 15日的 06点(UTC)到 15日的 08点(UTC)
能見度: 4500
轻雾
成为
从 15日的 06点(UTC)到 15日的 09点(UTC)
风速15节,风向,有时为25节阵风
成为
从 15日的 15点(UTC)到 15日的 18点(UTC)
风速9节,风向
散云层高于1000英尺

TAF: EDDT 150500Z 1506/1606 09013KT 9000 BKN010 TEMPO 1506/1512 BKN006 PROB30 TEMPO 1506/1508 4500 BR BECMG 1506/1509 09015G25KT BECMG 1515/1518 10009KT SCT010

超过4000个机场的气象观测和天气预报(METAR&TAF报告)。

可查询的气象台以黄色和红色小点在地图上表示。

将鼠标移到小点上方,可查看气象台名称。

然后点击查看天气观测和预报。

如需切换地图:点击带黑十字的绿色按钮放大地图;点击带横线的绿色按钮缩小地图;或者点击绿色箭头查看邻近地区的地图。


METAR-TAF: